Time;durP1;ratioP1;P1;durP2;ratioP2;P2;SDS_P1;SDS_P2;PMS_P1;PMS_P2;Temp;Humidity;BMP_temperature;BMP_pressure;BME280_temperature;BME280_humidity;BME280_pressure;Samples;Min_cycle;Max_cycle;Signal;HPM_P1;HPM_P2
2021/10/18 00:02:18;;;;;;;10.65;3.38;;;;;;;7.45;68.59;98574.06;4953688;28;20531;-79
2021/10/18 00:04:44;;;;;;;12.85;3.40;;;;;;;7.35;68.31;98552.41;4963978;28;20051;-81
2021/10/18 00:07:16;;;;;;;11.05;3.10;;;;;;;7.45;68.23;98559.66;4974744;28;20062;-80
2021/10/18 00:09:42;;;;;;;12.25;3.30;;;;;;;7.45;68.72;98573.28;4948905;28;20058;-82
2021/10/18 00:12:08;;;;;;;10.35;3.15;;;;;;;7.42;68.54;98554.81;4967857;28;20122;-82
2021/10/18 00:14:37;;;;;;;12.70;3.33;;;;;;;7.48;68.62;98559.88;4961125;28;20125;-81
2021/10/18 00:17:07;;;;;;;12.43;4.03;;;;;;;7.34;68.99;98554.31;4960543;28;20047;-82
2021/10/18 00:19:33;;;;;;;15.20;3.60;;;;;;;7.16;69.78;98547.63;4966090;28;20051;-81
2021/10/18 00:22:00;;;;;;;11.30;3.40;;;;;;;7.17;70.05;98546.53;4971517;28;20070;-82
2021/10/18 00:24:26;;;;;;;11.68;3.22;;;;;;;7.22;69.78;98543.78;4973386;28;20058;-82
2021/10/18 00:26:52;;;;;;;9.88;3.17;;;;;;;7.38;69.23;98557.28;4947233;28;20058;-82
2021/10/18 00:29:18;;;;;;;11.20;3.60;;;;;;;7.31;69.30;98554.88;4934152;28;20052;-80
2021/10/18 00:31:44;;;;;;;13.68;3.50;;;;;;;7.13;69.77;98540.03;4967111;28;20102;-82
2021/10/18 00:34:11;;;;;;;10.85;3.30;;;;;;;7.00;70.02;98529.81;4962023;28;20229;-81
2021/10/18 00:36:37;;;;;;;13.05;3.50;;;;;;;7.06;70.62;98550.44;4963355;28;20051;-82
2021/10/18 00:39:04;;;;;;;17.98;4.43;;;;;;;7.08;70.60;98550.97;4968746;28;20058;-80
2021/10/18 00:41:30;;;;;;;12.20;3.80;;;;;;;6.94;70.96;98538.00;4979367;28;20449;-81
2021/10/18 00:43:56;;;;;;;13.85;3.72;;;;;;;6.89;71.10;98524.44;4979006;28;20058;-81
2021/10/18 00:46:24;;;;;;;14.05;3.90;;;;;;;7.13;70.51;98539.25;4976872;28;20090;-81
2021/10/18 00:48:52;;;;;;;8.88;3.40;;;;;;;7.06;70.61;98539.56;4959446;28;20137;-79
2021/10/18 00:51:22;;;;;;;13.43;3.78;;;;;;;6.74;71.12;98511.75;4937845;28;20047;-79
2021/10/18 00:53:49;;;;;;;15.35;4.05;;;;;;;6.74;71.34;98521.81;4962081;28;20055;-80
2021/10/18 00:56:16;;;;;;;11.98;3.60;;;;;;;6.84;71.58;98524.47;4957036;28;20062;-83
2021/10/18 00:58:43;;;;;;;11.38;3.60;;;;;;;6.88;71.55;98525.53;4964385;28;20055;-81
2021/10/18 01:01:13;;;;;;;11.50;3.30;;;;;;;6.89;71.47;98520.91;4954144;28;20063;-82
2021/10/18 01:03:39;;;;;;;11.43;3.97;;;;;;;6.89;71.19;98516.28;4979393;28;20451;-81
2021/10/18 01:06:05;;;;;;;14.15;4.85;;;;;;;6.88;71.33;98520.13;4985718;28;20061;-81
2021/10/18 01:08:33;;;;;;;13.73;3.58;;;;;;;6.86;71.30;98518.75;4967217;28;20090;-82
2021/10/18 01:10:59;;;;;;;;;;;;;;;7.01;70.76;98515.13;4968277;28;20106;-80
2021/10/18 01:13:25;;;;;;;13.13;3.60;;;;;;;6.79;70.73;98486.47;4967137;28;19934;-83
2021/10/18 01:15:52;;;;;;;13.15;3.85;;;;;;;6.87;70.74;98501.38;4966310;28;20057;-83
2021/10/18 01:18:18;;;;;;;10.77;3.50;;;;;;;6.76;70.75;98474.25;4941291;29;20081;-80
2021/10/18 01:20:45;;;;;;;15.13;4.35;;;;;;;6.88;70.86;98514.69;4963277;28;20519;-83
2021/10/18 01:23:12;;;;;;;14.02;4.35;;;;;;;6.94;70.64;98505.38;4961823;28;20224;-82
2021/10/18 01:25:38;;;;;;;12.45;3.90;;;;;;;7.08;70.13;98510.97;4984102;28;20107;-81
2021/10/18 01:28:04;;;;;;;12.48;3.83;;;;;;;7.03;70.05;98507.53;4969871;28;20047;-81
2021/10/18 01:30:30;;;;;;;14.10;4.18;;;;;;;6.86;70.18;98491.59;4963422;28;20047;-80
2021/10/18 01:32:57;;;;;;;12.65;3.70;;;;;;;6.91;70.52;98507.84;4966525;28;20078;-81
2021/10/18 01:35:24;;;;;;;14.98;3.85;;;;;;;6.87;70.82;98504.06;4966934;28;20057;-83
2021/10/18 01:37:51;;;;;;;12.10;4.03;;;;;;;6.83;70.83;98508.47;4961654;28;20573;-82
2021/10/18 01:40:21;;;;;;;10.55;3.60;;;;;;;6.74;70.73;98498.16;4956344;28;20472;-83
2021/10/18 01:42:48;;;;;;;12.77;3.75;;;;;;;6.85;70.82;98500.84;4980224;28;20543;-83
2021/10/18 01:45:16;;;;;;;14.23;3.55;;;;;;;6.85;70.55;98490.75;4964394;28;20079;-84
2021/10/18 01:47:43;;;;;;;17.65;4.25;;;;;;;6.74;71.19;98508.25;4935706;29;20066;-84
2021/10/18 01:50:11;;;;;;;12.80;4.20;;;;;;;6.69;71.14;98492.78;4952064;28;20058;-81
2021/10/18 01:52:37;;;;;;;11.73;4.25;;;;;;;6.75;70.86;98488.94;4985654;28;20405;-81
2021/10/18 01:55:15;;;;;;;15.95;4.10;;;;;;;6.61;71.22;98468.91;4930716;28;20066;-84
2021/10/18 01:57:42;;;;;;;13.25;3.83;;;;;;;6.81;70.79;98487.81;4972494;28;20435;-83
2021/10/18 02:00:16;;;;;;;19.95;4.25;;;;;;;6.91;70.63;98472.53;4954380;28;20058;-82
2021/10/18 02:02:43;;;;;;;14.48;4.13;;;;;;;6.54;70.64;98461.06;4965992;28;20047;-83
2021/10/18 02:05:09;;;;;;;13.15;3.88;;;;;;;6.20;70.61;98399.38;4965096;28;20097;-83
2021/10/18 02:07:36;;;;;;;14.70;3.97;;;;;;;6.49;70.63;98442.09;4980042;28;20059;-83
2021/10/18 02:10:12;;;;;;;10.90;3.85;;;;;;;6.46;70.15;98400.03;4952827;28;20047;-83
2021/10/18 02:12:51;;;;;;;16.80;3.88;;;;;;;6.31;70.01;98368.38;4967239;28;20122;-82
2021/10/18 02:15:17;;;;;;;11.48;3.83;;;;;;;6.95;69.79;98473.59;4959970;28;20059;-83
2021/10/18 02:17:44;;;;;;;14.63;4.40;;;;;;;6.73;69.99;98436.00;4942981;29;20419;-82
2021/10/18 02:20:19;;;;;;;12.32;4.03;;;;;;;6.84;69.85;98439.44;4967766;28;20102;-80
2021/10/18 02:22:49;;;;;;;14.25;4.72;;;;;;;6.52;69.35;98377.19;4966731;28;20047;-82
2021/10/18 02:25:20;;;;;;;14.13;4.30;;;;;;;6.53;69.89;98386.13;4967294;28;20416;-81
2021/10/18 02:27:51;;;;;;;11.90;4.65;;;;;;;6.90;69.25;98428.25;4964274;28;20074;-79
2021/10/18 02:30:18;;;;;;;14.13;3.80;;;;;;;7.12;69.43;98461.50;4966945;28;20063;-78
2021/10/18 02:32:44;;;;;;;14.13;4.30;;;;;;;7.03;69.78;98458.59;4972142;28;20145;-78
2021/10/18 02:35:11;;;;;;;15.05;4.72;;;;;;;7.02;69.75;98474.06;4960737;28;20560;-79
2021/10/18 02:37:37;;;;;;;11.73;4.18;;;;;;;7.11;69.53;98457.97;4967773;28;20089;-82
2021/10/18 02:40:04;;;;;;;14.47;4.70;;;;;;;7.10;69.47;98442.75;4968380;28;20495;-81
2021/10/18 02:42:32;;;;;;;13.85;4.50;;;;;;;7.13;69.43;98463.13;4947539;28;20079;-81
2021/10/18 02:44:58;;;;;;;20.08;4.30;;;;;;;7.02;69.33;98456.94;4976724;28;20477;-81
2021/10/18 02:47:24;;;;;;;12.98;4.15;;;;;;;7.08;69.31;98448.47;4944063;28;20539;-82
2021/10/18 02:49:51;;;;;;;12.15;4.38;;;;;;;7.03;69.38;98461.31;4959102;28;20322;-81
2021/10/18 02:52:17;;;;;;;12.63;3.88;;;;;;;6.85;69.69;98439.13;4948526;29;20075;-84
2021/10/18 02:54:43;;;;;;;15.38;4.40;;;;;;;6.79;69.95;98443.00;4957215;28;20138;-82
2021/10/18 02:57:09;;;;;;;14.00;4.03;;;;;;;6.73;70.11;98455.00;4962925;28;20509;-81
2021/10/18 02:59:38;;;;;;;14.93;4.43;;;;;;;6.74;69.91;98424.03;4959658;28;20097;-80
2021/10/18 03:02:04;;;;;;;14.82;4.28;;;;;;;6.93;69.56;98437.72;4964902;28;20499;-82
2021/10/18 03:04:30;;;;;;;14.18;4.50;;;;;;;6.83;69.86;98449.47;4963068;28;20063;-83
2021/10/18 03:06:56;;;;;;;12.18;4.93;;;;;;;6.62;70.44;98443.38;4961594;28;20067;-82
2021/10/18 03:09:22;;;;;;;12.20;4.13;;;;;;;6.48;70.50;98407.91;4956310;28;20050;-81
2021/10/18 03:11:48;;;;;;;16.70;4.65;;;;;;;6.62;70.66;98443.38;4949167;28;20060;-82
2021/10/18 03:14:14;;;;;;;17.98;5.00;;;;;;;6.36;71.00;98402.81;4967799;28;20054;-82
2021/10/18 03:16:44;;;;;;;16.40;4.63;;;;;;;6.62;70.58;98418.94;4960001;28;20078;-80
2021/10/18 03:19:10;;;;;;;17.00;4.63;;;;;;;6.47;70.94;98425.28;4983237;28;20527;-81
2021/10/18 03:21:36;;;;;;;12.70;4.75;;;;;;;6.30;71.04;98401.22;4965833;28;20047;-81
2021/10/18 03:24:03;;;;;;;12.20;4.35;;;;;;;6.43;71.08;98414.16;4962844;28;20059;-80
2021/10/18 03:26:32;;;;;;;14.75;4.20;;;;;;;6.34;71.30;98400.38;4974128;28;20504;-81
2021/10/18 03:28:58;;;;;;;12.98;3.90;;;;;;;6.44;71.01;98409.56;4950483;28;20061;-79
2021/10/18 03:31:24;;;;;;;14.75;4.25;;;;;;;6.46;70.72;98402.75;4962117;28;20409;-80
2021/10/18 03:33:51;;;;;;;13.82;4.43;;;;;;;6.29;71.11;98411.28;4966665;28;20214;-79
2021/10/18 03:36:18;;;;;;;16.30;4.22;;;;;;;6.06;70.99;98374.78;4952994;28;20063;-79
2021/10/18 03:38:44;;;;;;;19.70;4.18;;;;;;;6.01;71.83;98396.44;4951144;28;20078;-81
2021/10/18 03:41:13;;;;;;;13.30;3.67;;;;;;;6.00;71.80;98386.69;4970938;28;20082;-79
2021/10/18 03:43:39;;;;;;;12.40;3.88;;;;;;;5.99;71.66;98395.91;4950211;28;20427;-80
2021/10/18 03:46:05;;;;;;;15.40;4.30;;;;;;;5.95;72.02;98384.84;4967181;28;20050;-79
2021/10/18 03:48:32;;;;;;;10.60;3.50;;;;;;;5.94;71.92;98386.72;4971367;28;20153;-79
2021/10/18 03:50:59;;;;;;;12.30;4.03;;;;;;;5.91;71.88;98373.72;4972970;28;20058;-79
2021/10/18 03:53:25;;;;;;;16.85;4.47;;;;;;;5.97;71.69;98366.38;4970927;28;20066;-78
2021/10/18 03:55:51;;;;;;;13.50;4.07;;;;;;;5.95;71.61;98379.41;4971837;28;20071;-80
2021/10/18 03:58:18;;;;;;;15.07;4.20;;;;;;;5.72;72.21;98387.09;4984702;28;20140;-80
2021/10/18 04:00:44;;;;;;;13.30;4.23;;;;;;;5.74;72.25;98375.97;4993338;28;20464;-81
2021/10/18 04:03:13;;;;;;;16.58;4.25;;;;;;;5.78;72.10;98371.59;4974167;28;20364;-82
2021/10/18 04:05:39;;;;;;;12.05;3.95;;;;;;;5.85;72.08;98376.75;4972123;28;20051;-80
2021/10/18 04:08:07;;;;;;;13.32;4.32;;;;;;;5.77;72.21;98388.97;4967530;28;20094;-79
2021/10/18 04:10:33;;;;;;;17.25;4.60;;;;;;;5.61;72.68;98372.75;4951074;28;20051;-79
2021/10/18 04:12:59;;;;;;;14.82;4.88;;;;;;;5.62;72.61;98362.72;4950236;28;20111;-79
2021/10/18 04:15:25;;;;;;;13.65;4.47;;;;;;;5.52;72.82;98367.09;4965714;28;20124;-80
2021/10/18 04:17:51;;;;;;;13.25;5.10;;;;;;;5.62;73.00;98374.38;4992902;28;20125;-80
2021/10/18 04:20:20;;;;;;;13.52;4.57;;;;;;;5.66;72.81;98375.44;4971158;28;20070;-82
2021/10/18 04:22:47;;;;;;;14.88;4.20;;;;;;;5.74;72.50;98384.91;4970389;28;20077;-83
2021/10/18 04:25:15;;;;;;;14.30;4.28;;;;;;;5.73;72.17;98355.38;4971996;28;20150;-81
2021/10/18 04:27:42;;;;;;;14.68;4.68;;;;;;;5.64;72.71;98363.28;4962635;28;20058;-82
2021/10/18 04:30:09;;;;;;;17.75;5.07;;;;;;;5.66;72.82;98377.38;4972915;28;20055;-80
2021/10/18 04:32:35;;;;;;;18.92;5.35;;;;;;;5.67;72.81;98371.63;4953913;28;20106;-81
2021/10/18 04:35:02;;;;;;;15.93;4.97;;;;;;;5.73;72.60;98352.66;4953459;28;20645;-81
2021/10/18 04:37:29;;;;;;;15.05;5.03;;;;;;;5.70;72.44;98356.72;4972227;28;20059;-81
2021/10/18 04:39:55;;;;;;;14.23;4.68;;;;;;;5.83;72.28;98371.56;4955124;28;20054;-80
2021/10/18 04:42:22;;;;;;;16.52;4.80;;;;;;;5.90;72.07;98355.00;4971271;28;20080;-82
2021/10/18 04:44:48;;;;;;;16.63;4.88;;;;;;;5.87;72.07;98358.28;4971315;28;20051;-81
2021/10/18 04:47:15;;;;;;;14.98;4.75;;;;;;;5.93;71.84;98360.69;4972409;28;20583;-81
2021/10/18 04:49:40;;;;;;;16.25;5.00;;;;;;;5.93;71.92;98360.69;4955417;28;20058;-81
2021/10/18 04:52:07;;;;;;;16.48;4.78;;;;;;;6.07;71.49;98343.81;4970609;28;20055;-81
2021/10/18 04:54:33;;;;;;;13.85;4.88;;;;;;;5.97;71.49;98344.66;4970609;28;20051;-81
2021/10/18 04:56:58;;;;;;;14.75;4.97;;;;;;;6.08;71.25;98343.53;4966212;28;20141;-82
2021/10/18 04:59:26;;;;;;;14.65;5.05;;;;;;;6.03;71.08;98346.28;4970488;28;20082;-80
2021/10/18 05:01:52;;;;;;;19.00;5.63;;;;;;;6.07;71.38;98352.75;4972132;28;20118;-81
2021/10/18 05:04:21;;;;;;;18.42;5.53;;;;;;;5.90;71.87;98347.69;4952894;28;20658;-80
2021/10/18 05:06:49;;;;;;;15.98;5.63;;;;;;;5.79;71.98;98343.41;4952965;28;20419;-80
2021/10/18 05:09:19;;;;;;;22.27;5.78;;;;;;;5.80;71.82;98326.84;4953394;28;20047;-80
2021/10/18 05:11:45;;;;;;;15.40;5.53;;;;;;;5.18;72.26;98261.22;4969186;28;20083;-80
2021/10/18 05:14:12;;;;;;;13.30;5.93;;;;;;;5.57;72.08;98320.19;4936904;28;20050;-80
2021/10/18 05:16:42;;;;;;;14.00;5.38;;;;;;;5.92;71.96;98331.09;4955109;28;20055;-80
2021/10/18 05:19:08;;;;;;;18.20;5.60;;;;;;;5.96;71.60;98341.13;4975686;28;20086;-80
2021/10/18 05:21:36;;;;;;;22.67;5.47;;;;;;;5.61;71.57;98286.00;4970894;28;20058;-79
2021/10/18 05:24:02;;;;;;;20.25;5.63;;;;;;;5.95;71.90;98328.66;4969733;28;20050;-79
2021/10/18 05:26:31;;;;;;;16.45;5.18;;;;;;;6.00;71.74;98340.56;4973023;28;20059;-78
2021/10/18 05:28:57;;;;;;;17.60;5.82;;;;;;;5.65;71.53;98294.38;4974151;28;20050;-78
2021/10/18 05:31:23;;;;;;;18.35;6.07;;;;;;;6.16;71.23;98350.25;4975173;28;20106;-76
2021/10/18 05:33:51;;;;;;;18.25;5.90;;;;;;;6.15;71.34;98350.56;4979850;28;20488;-76
2021/10/18 05:36:17;;;;;;;;;;;;;;;5.97;71.65;98336.53;4961897;28;20065;-77
2021/10/18 05:38:43;;;;;;;19.25;6.00;;;;;;;5.93;71.93;98340.88;4977252;28;20424;-77
2021/10/18 05:41:09;;;;;;;17.20;5.20;;;;;;;5.96;71.81;98346.56;4973497;28;20507;-76
2021/10/18 05:43:35;;;;;;;17.50;5.78;;;;;;;5.93;72.10;98346.28;4973178;28;20483;-76
2021/10/18 05:46:01;;;;;;;15.85;5.80;;;;;;;6.01;72.00;98345.75;4974341;28;20050;-75
2021/10/18 05:48:27;;;;;;;21.20;6.68;;;;;;;5.92;72.07;98350.09;4973690;28;20463;-75
2021/10/18 05:50:55;;;;;;;16.25;6.78;;;;;;;5.82;72.24;98329.28;4991526;28;20055;-74
2021/10/18 05:53:21;;;;;;;16.17;6.00;;;;;;;5.99;72.13;98330.81;4959684;28;20081;-77
2021/10/18 05:55:47;;;;;;;20.92;5.53;;;;;;;6.03;71.79;98331.91;4973685;28;20430;-76
2021/10/18 05:58:13;;;;;;;14.80;5.80;;;;;;;6.14;71.66;98348.94;4973734;28;20138;-77
2021/10/18 06:00:40;;;;;;;21.27;5.90;;;;;;;6.00;71.86;98341.38;4973540;28;20451;-75
2021/10/18 06:03:07;;;;;;;16.00;5.57;;;;;;;6.08;72.07;98340.00;4975674;28;20054;-76
2021/10/18 06:05:42;;;;;;;16.90;6.53;;;;;;;6.05;71.77;98327.81;4976016;28;20050;-75
2021/10/18 06:08:12;;;;;;;21.00;6.15;;;;;;;6.06;71.62;98362.00;4973320;28;20106;-76
2021/10/18 06:10:39;;;;;;;16.50;5.43;;;;;;;5.96;72.12;98335.69;4980601;28;20066;-78
2021/10/18 06:13:06;;;;;;;14.43;5.15;;;;;;;6.04;72.00;98336.25;4974800;28;20101;-77
2021/10/18 06:15:33;;;;;;;14.02;5.93;;;;;;;6.15;71.73;98342.41;4974310;28;20077;-78
2021/10/18 06:18:11;;;;;;;14.98;5.32;;;;;;;6.13;71.98;98325.63;4974522;28;20427;-78
2021/10/18 06:20:38;;;;;;;19.15;5.93;;;;;;;6.21;71.48;98330.44;4972342;28;20515;-79
2021/10/18 06:23:04;;;;;;;18.20;5.50;;;;;;;6.21;71.66;98341.28;4973501;28;20503;-78
2021/10/18 06:25:32;;;;;;;14.98;6.15;;;;;;;6.20;71.70;98332.34;4989451;28;20094;-77
2021/10/18 06:27:59;;;;;;;18.05;5.93;;;;;;;6.27;71.54;98333.91;4974505;28;20098;-76
2021/10/18 06:30:28;;;;;;;15.40;5.55;;;;;;;6.23;71.77;98334.50;4951521;28;20050;-76
2021/10/18 06:32:54;;;;;;;16.67;5.93;;;;;;;6.31;71.41;98332.25;4952933;28;20130;-75
2021/10/18 06:35:21;;;;;;;16.75;5.60;;;;;;;6.37;71.25;98312.94;4972942;28;20066;-77
2021/10/18 06:37:47;;;;;;;16.60;5.15;;;;;;;6.34;71.33;98313.50;4957637;28;20058;-76
2021/10/18 06:40:13;;;;;;;15.10;6.15;;;;;;;6.42;71.38;98322.94;4974330;28;20427;-77
2021/10/18 06:42:41;;;;;;;21.42;6.13;;;;;;;6.39;71.77;98326.25;4963010;28;20051;-77
2021/10/18 06:45:08;;;;;;;17.40;6.00;;;;;;;6.39;71.69;98326.25;4954316;28;20055;-75
2021/10/18 06:47:34;;;;;;;16.98;5.85;;;;;;;6.08;72.57;98308.25;4891993;28;20114;-76
2021/10/18 06:50:00;;;;;;;15.20;5.57;;;;;;;6.18;72.81;98326.41;4876625;28;20066;-76
2021/10/18 06:52:31;;;;;;;15.43;5.60;;;;;;;6.24;72.62;98338.81;4859888;28;20515;-77
2021/10/18 06:54:58;;;;;;;19.58;6.03;;;;;;;6.00;73.50;98327.81;4841523;28;20661;-77
2021/10/18 06:57:24;;;;;;;16.63;6.32;;;;;;;6.15;73.42;98320.72;4860393;28;21837;-78
2021/10/18 06:59:52;;;;;;;14.50;5.95;;;;;;;5.94;73.49;98321.63;4869028;28;20150;-77
2021/10/18 07:02:18;;;;;;;16.30;5.50;;;;;;;6.06;73.59;98324.00;4849940;28;20065;-77
2021/10/18 07:04:44;;;;;;;15.90;5.40;;;;;;;6.07;73.74;98332.97;4828680;28;20586;-75
2021/10/18 07:07:10;;;;;;;17.13;5.68;;;;;;;6.14;73.75;98325.31;4809758;28;20067;-77
2021/10/18 07:09:36;;;;;;;14.10;5.78;;;;;;;6.27;73.41;98339.34;4840560;28;20059;-77
2021/10/18 07:12:03;;;;;;;13.68;5.38;;;;;;;6.01;73.90;98296.06;4822741;28;20086;-78
2021/10/18 07:14:30;;;;;;;15.90;5.88;;;;;;;6.09;73.73;98319.94;4823538;28;20051;-76
2021/10/18 07:16:57;;;;;;;14.88;5.55;;;;;;;6.23;73.51;98309.22;4836499;28;20197;-75
2021/10/18 07:19:23;;;;;;;18.83;6.15;;;;;;;6.30;73.70;98322.50;4845061;28;20662;-74
2021/10/18 07:21:49;;;;;;;14.07;5.78;;;;;;;6.18;74.25;98325.56;4844801;28;20598;-75
2021/10/18 07:24:18;;;;;;;15.00;6.20;;;;;;;5.96;74.52;98295.00;4826441;28;20105;-76
2021/10/18 07:26:49;;;;;;;17.35;6.00;;;;;;;6.26;74.20;98311.41;4811336;28;20694;-76
2021/10/18 07:29:16;;;;;;;18.95;5.35;;;;;;;6.43;73.67;98332.72;4832879;28;20081;-76
2021/10/18 07:31:42;;;;;;;14.88;5.55;;;;;;;6.46;73.55;98315.84;4832267;28;20587;-75
2021/10/18 07:34:14;;;;;;;21.13;7.90;;;;;;;6.76;73.76;98343.84;4842705;28;20583;-76
2021/10/18 07:36:50;;;;;;;22.15;6.50;;;;;;;6.91;73.66;98377.41;4852582;28;20066;-76
2021/10/18 07:39:17;;;;;;;21.63;5.53;;;;;;;6.78;73.78;98330.78;4829150;28;20426;-76
2021/10/18 07:41:44;;;;;;;16.23;4.68;;;;;;;6.95;73.22;98373.84;4804562;28;20150;-77
2021/10/18 07:44:10;;;;;;;18.25;5.22;;;;;;;6.99;73.22;98389.56;4832155;28;20054;-77
2021/10/18 07:46:37;;;;;;;11.80;3.38;;;;;;;6.91;72.82;98363.84;4873945;28;20086;-75
2021/10/18 07:49:03;;;;;;;19.65;3.50;;;;;;;6.86;72.16;98377.47;4963455;28;20479;-84
2021/10/18 07:51:31;;;;;;;9.00;2.55;;;;;;;6.95;71.63;98382.00;4970308;28;20070;-75
2021/10/18 07:53:56;;;;;;;10.25;2.05;;;;;;;6.93;70.76;98375.22;4972970;28;20570;-76
2021/10/18 07:56:22;;;;;;;19.48;2.60;;;;;;;6.90;70.45;98365.75;4971448;28;20058;-75
2021/10/18 07:58:48;;;;;;;10.45;2.35;;;;;;;6.98;70.20;98394.22;4972602;28;20519;-76
2021/10/18 08:01:14;;;;;;;10.20;2.55;;;;;;;7.00;70.09;98388.47;4972244;28;20125;-75
2021/10/18 08:03:40;;;;;;;9.55;2.50;;;;;;;7.01;69.65;98395.53;4972640;28;20511;-75
2021/10/18 08:06:06;;;;;;;11.82;2.63;;;;;;;6.98;69.50;98383.34;4983670;28;20054;-75
2021/10/18 08:08:42;;;;;;;19.27;2.33;;;;;;;6.96;69.10;98399.13;4982616;28;20114;-77
2021/10/18 08:11:09;;;;;;;18.20;4.38;;;;;;;6.93;69.38;98383.38;4964614;28;20066;-76
2021/10/18 08:13:35;;;;;;;11.45;2.20;;;;;;;6.99;68.75;98395.84;4961151;28;20404;-75
2021/10/18 08:16:01;;;;;;;11.18;2.05;;;;;;;6.98;68.51;98404.25;4981500;28;20046;-75
2021/10/18 08:18:27;;;;;;;20.05;2.80;;;;;;;7.01;68.28;98417.28;4971433;28;20134;-77
2021/10/18 08:20:53;;;;;;;19.60;3.00;;;;;;;7.04;68.43;98412.09;4973808;28;20066;-74
2021/10/18 08:23:19;;;;;;;20.98;3.40;;;;;;;7.16;68.17;98410.91;4963027;28;20051;-77
2021/10/18 08:25:46;;;;;;;9.13;2.45;;;;;;;7.16;67.39;98413.63;4971416;28;20117;-75
2021/10/18 08:28:13;;;;;;;18.42;2.40;;;;;;;7.17;66.89;98413.31;4966160;28;20140;-75
2021/10/18 08:30:39;;;;;;;15.50;2.40;;;;;;;7.23;66.05;98417.63;4969788;28;20622;-75
2021/10/18 08:33:06;;;;;;;12.10;2.40;;;;;;;7.31;65.94;98432.50;4974994;28;20050;-73
2021/10/18 08:35:33;;;;;;;15.88;2.70;;;;;;;7.38;66.07;98435.69;4966002;28;20061;-75
2021/10/18 08:41:00;;;;;;;20.42;2.50;;;;;;;7.26;65.76;98412.72;4962231;28;20057;-76
2021/10/18 08:45:52;;;;;;;9.80;2.13;;;;;;;7.65;65.11;98436.25;4971627;28;20514;-75
2021/10/18 08:48:19;;;;;;;10.63;2.15;;;;;;;7.78;64.59;98432.03;4980715;28;20042;-76
2021/10/18 08:50:45;;;;;;;6.95;2.00;;;;;;;7.92;64.29;98440.31;4969477;28;20518;-76
2021/10/18 08:53:11;;;;;;;11.50;2.20;;;;;;;8.01;64.24;98449.44;4969440;28;20615;-77
2021/10/18 08:55:38;;;;;;;6.50;1.88;;;;;;;8.01;64.23;98446.72;4970055;28;20098;-75
2021/10/18 08:58:06;;;;;;;13.57;2.30;;;;;;;8.05;64.10;98430.63;4970617;28;20557;-75
2021/10/18 09:00:38;;;;;;;9.35;1.80;;;;;;;8.01;63.43;98429.56;4975475;28;20058;-75
2021/10/18 09:03:20;;;;;;;9.38;2.03;;;;;;;7.99;63.18;98435.31;4977466;28;20074;-73
2021/10/18 09:05:47;;;;;;;7.55;1.80;;;;;;;7.88;63.03;98414.78;4968035;28;20090;-78
2021/10/18 09:08:33;;;;;;;10.15;2.22;;;;;;;8.17;62.89;98436.44;4974125;28;20065;-79
2021/10/18 10:53:22;;;;;;;10.45;4.00;;;;;;;10.90;48.69;98464.63;4956412;28;20050;-71
2021/10/18 10:55:50;;;;;;;12.98;3.95;;;;;;;10.77;48.83;98460.81;4957409;28;20489;-73
2021/10/18 10:58:36;;;;;;;11.02;3.17;;;;;;;10.73;48.69;98476.22;4943537;28;20053;-72
2021/10/18 11:01:03;;;;;;;12.15;3.58;;;;;;;10.72;49.18;98476.53;4964631;28;20054;-72
2021/10/18 11:03:40;;;;;;;14.77;4.07;;;;;;;11.25;47.95;98480.47;4967872;28;20055;-73
2021/10/18 11:06:09;;;;;;;12.18;3.42;;;;;;;11.07;48.66;98466.69;4958826;28;20058;-73
2021/10/18 11:08:37;;;;;;;18.73;4.18;;;;;;;10.95;48.77;98474.63;4971347;28;20054;-72
2021/10/18 11:11:09;;;;;;;;;;;;;;;10.85;48.82;98478.41;4969181;28;20057;-73
2021/10/18 11:13:54;;;;;;;15.38;4.00;;;;;;;10.61;48.45;98463.09;4971977;28;19926;-73
2021/10/18 11:16:22;;;;;;;14.05;3.55;;;;;;;10.57;48.86;98474.97;4972724;28;20086;-73
2021/10/18 11:18:51;;;;;;;12.23;4.40;;;;;;;10.57;48.95;98483.16;4968038;28;20053;-73
2021/10/18 11:21:23;;;;;;;17.42;4.18;;;;;;;10.50;49.13;98484.38;4960756;28;20067;-73
2021/10/18 11:24:01;;;;;;;13.57;4.35;;;;;;;10.50;49.15;98480.84;4952226;28;20058;-73
2021/10/18 11:26:29;;;;;;;28.15;5.35;;;;;;;10.26;49.50;98472.84;4960981;28;20065;-73
2021/10/18 11:28:57;;;;;;;25.25;5.57;;;;;;;10.10;49.81;98484.09;4967996;28;20480;-74
2021/10/18 11:31:26;;;;;;;20.80;6.15;;;;;;;10.03;49.58;98487.22;4966482;28;20146;-73
2021/10/18 11:34:09;;;;;;;22.02;8.15;;;;;;;10.11;49.58;98488.44;4958100;28;20464;-73
2021/10/18 11:36:37;;;;;;;22.98;9.77;;;;;;;10.49;48.89;98484.69;4955295;28;20054;-73
2021/10/18 11:39:12;;;;;;;24.55;8.13;;;;;;;11.44;47.18;98474.81;4969149;28;20055;-73
2021/10/18 11:42:05;;;;;;;15.00;4.40;;;;;;;11.93;46.04;98482.31;4935339;28;21464;-75
2021/10/18 11:44:43;;;;;;;15.70;3.28;;;;;;;12.46;43.96;98480.56;4959792;28;20057;-72
2021/10/18 11:47:30;;;;;;;12.45;3.45;;;;;;;12.80;43.04;98466.41;4959686;28;20051;-74
2021/10/18 11:50:06;;;;;;;11.38;3.10;;;;;;;12.25;43.88;98480.34;4960783;28;20050;-73
2021/10/18 11:52:33;;;;;;;23.55;2.20;;;;;;;11.81;44.26;98491.13;4964156;28;20059;-76
2021/10/18 11:54:59;;;;;;;6.97;2.10;;;;;;;11.46;44.21;98483.53;4954402;28;20051;-72
2021/10/18 11:57:29;;;;;;;10.25;2.28;;;;;;;11.39;44.24;98474.94;4970280;28;20617;-72
2021/10/18 11:59:55;;;;;;;12.65;2.90;;;;;;;11.17;44.56;98487.50;4967546;28;20566;-73
2021/10/18 12:02:22;;;;;;;12.40;3.30;;;;;;;11.01;44.71;98486.25;4961862;28;20432;-72
2021/10/18 12:04:55;;;;;;;13.63;5.40;;;;;;;10.81;45.05;98480.16;4961856;28;20051;-73
2021/10/18 12:07:41;;;;;;;13.25;5.00;;;;;;;10.65;45.63;98471.47;4954188;28;20068;-73
2021/10/18 12:10:29;;;;;;;14.73;6.40;;;;;;;10.55;45.94;98480.72;4962761;28;20062;-74
2021/10/18 12:13:23;;;;;;;16.67;7.93;;;;;;;10.67;45.82;98480.19;4952390;28;20086;-73
2021/10/18 12:16:08;;;;;;;17.42;6.70;;;;;;;11.33;44.71;98477.00;4961625;28;20082;-72
2021/10/18 12:18:38;;;;;;;16.55;5.53;;;;;;;11.78;44.30;98484.34;4962481;28;20066;-70
2021/10/18 12:21:09;;;;;;;14.70;6.15;;;;;;;11.86;44.08;98476.44;4954052;28;20121;-72
2021/10/18 12:23:45;;;;;;;12.57;6.38;;;;;;;11.83;43.78;98485.31;4979128;28;20071;-74
2021/10/18 12:26:14;;;;;;;20.90;5.85;;;;;;;11.57;44.30;98472.31;4953171;28;20058;-72
2021/10/18 12:28:51;;;;;;;17.10;6.55;;;;;;;11.50;43.90;98483.72;4971849;28;20531;-74
2021/10/18 12:31:27;;;;;;;13.23;6.40;;;;;;;11.76;43.29;98488.50;4958313;28;20069;-73
2021/10/18 12:34:10;;;;;;;12.52;4.65;;;;;;;11.87;42.34;98470.66;4966250;28;20133;-74
2021/10/18 12:37:01;;;;;;;14.35;3.80;;;;;;;11.74;42.17;98469.66;4958484;28;20062;-74
2021/10/18 12:39:42;;;;;;;10.57;3.60;;;;;;;11.46;42.73;98469.84;4956631;28;20201;-72
2021/10/18 12:42:10;;;;;;;15.63;3.15;;;;;;;11.51;42.33;98479.84;4973441;28;20046;-72
2021/10/18 12:44:38;;;;;;;17.42;2.97;;;;;;;11.50;41.81;98478.22;4975189;28;20055;-74
2021/10/18 12:47:15;;;;;;;13.05;3.67;;;;;;;11.43;41.97;98469.66;4968543;28;20096;-71
2021/10/18 12:49:51;;;;;;;12.85;3.67;;;;;;;11.56;41.94;98473.44;4963655;28;20082;-71
2021/10/18 12:52:26;;;;;;;12.13;4.10;;;;;;;11.77;40.81;98465.47;4969304;28;20056;-73
2021/10/18 12:54:54;;;;;;;14.77;6.00;;;;;;;12.16;40.99;98482.25;4962197;28;20132;-72
2021/10/18 12:57:24;;;;;;;15.57;6.60;;;;;;;12.29;40.80;98470.34;4970239;28;20059;-72
2021/10/18 13:00:04;;;;;;;21.23;8.07;;;;;;;12.55;40.23;98468.78;4965971;28;20061;-71
2021/10/18 13:02:32;;;;;;;17.52;5.80;;;;;;;12.66;40.46;98472.03;4956487;28;20059;-72
2021/10/18 13:05:16;;;;;;;15.75;5.95;;;;;;;12.78;40.42;98472.19;4974492;28;20081;-75
2021/10/18 13:07:48;;;;;;;15.77;5.05;;;;;;;12.83;40.18;98485.75;4973267;28;20066;-72
2021/10/18 13:10:16;;;;;;;10.88;4.00;;;;;;;12.65;40.05;98467.69;4972198;28;20573;-72
2021/10/18 13:12:42;;;;;;;;;;;;;;;12.45;40.40;98470.72;4974786;28;20485;-73
2021/10/18 13:15:10;;;;;;;11.65;4.30;;;;;;;12.19;40.28;98463.25;4974301;28;20351;-73
2021/10/18 13:17:38;;;;;;;;;;;;;;;11.90;41.01;98475.50;4957121;28;20050;-72
2021/10/18 13:20:06;;;;;;;9.82;4.15;;;;;;;11.69;41.16;98471.72;4973934;28;19926;-73
2021/10/18 13:22:32;;;;;;;12.10;4.70;;;;;;;11.49;41.23;98469.19;4973895;28;20051;-74
2021/10/18 13:24:58;;;;;;;17.65;4.07;;;;;;;11.49;41.11;98468.41;4974622;28;20503;-74
2021/10/18 13:27:25;;;;;;;15.65;2.80;;;;;;;11.34;40.63;98475.06;4974363;28;20059;-74
2021/10/18 13:29:51;;;;;;;15.40;3.55;;;;;;;11.04;41.22;98463.75;4969082;28;20445;-72